createdAt,value
2023-04-02T00:01:01.354Z,101125.81
2023-04-02T00:03:43.888Z,101124.94
2023-04-02T00:06:34.441Z,101124.06
2023-04-02T00:09:23.476Z,101132.13
2023-04-02T00:11:56.240Z,101139.25
2023-04-02T00:14:35.124Z,101138.44
2023-04-02T00:17:07.436Z,101141.13
2023-04-02T00:19:51.805Z,101150.03
2023-04-02T00:22:31.377Z,101152.75
2023-04-02T00:25:12.606Z,101162.56
2023-04-02T00:27:45.747Z,101165.25
2023-04-02T00:30:18.253Z,101175.09
2023-04-02T00:32:51.773Z,101174.22
2023-04-02T00:35:28.544Z,101170.69
2023-04-02T00:38:02.262Z,101168.94
2023-04-02T00:40:34.666Z,101177.81
2023-04-02T00:43:08.425Z,101173.44
2023-04-02T00:45:41.551Z,101184.13
2023-04-02T00:48:45.064Z,101177.03
2023-04-02T00:51:26.238Z,101180.66
2023-04-02T00:54:04.086Z,101191.38
2023-04-02T00:56:48.658Z,101185.22
2023-04-02T00:59:28.958Z,101192.34
2023-04-02T01:02:26.617Z,101191.41
2023-04-02T01:05:15.821Z,101201.28
2023-04-02T01:07:58.830Z,101202.22
2023-04-02T01:11:03.431Z,101211.06
2023-04-02T01:13:41.929Z,101206.69
2023-04-02T01:16:26.004Z,101213.91
2023-04-02T01:19:21.184Z,101216.53
2023-04-02T01:22:22.944Z,101218.31
2023-04-02T01:24:58.474Z,101215.69
2023-04-02T01:28:19.717Z,101231.69
2023-04-02T01:30:56.066Z,101228.22
2023-04-02T01:33:35.374Z,101234.47
2023-04-02T01:36:26.423Z,101240.69
2023-04-02T01:39:17.219Z,101241.66
2023-04-02T01:41:59.403Z,101249.66
2023-04-02T01:44:50.018Z,101249.69
2023-04-02T01:47:27.424Z,101251.50
2023-04-02T01:50:14.787Z,101252.41
2023-04-02T01:52:51.752Z,101258.69
2023-04-02T01:55:48.860Z,101261.34
2023-04-02T01:58:28.076Z,101257.84
2023-04-02T02:01:17.485Z,101258.78
2023-04-02T02:03:51.064Z,101265.03
2023-04-02T02:06:24.529Z,101268.63
2023-04-02T02:09:04.343Z,101268.63
2023-04-02T02:11:37.555Z,101274.03
2023-04-02T02:14:16.929Z,101286.47
2023-04-02T02:16:50.333Z,101279.41
2023-04-02T02:19:45.798Z,101284.72
2023-04-02T02:22:29.472Z,101291.84
2023-04-02T02:25:11.306Z,101289.22
2023-04-02T02:27:49.809Z,101291.88
2023-04-02T02:30:38.290Z,101281.34
2023-04-02T02:33:15.358Z,101291.97
2023-04-02T02:35:57.505Z,101293.78
2023-04-02T02:38:35.171Z,101302.72
2023-04-02T02:41:27.046Z,101299.16
2023-04-02T02:44:10.556Z,101310.78
2023-04-02T02:46:50.480Z,101314.34
2023-04-02T02:49:29.394Z,101308.19
2023-04-02T02:52:13.112Z,101307.25
2023-04-02T02:54:58.078Z,101325.09
2023-04-02T02:57:38.965Z,101334.91
2023-04-02T03:00:11.993Z,101336.69
2023-04-02T03:02:46.534Z,101340.28
2023-04-02T03:05:24.122Z,101345.59
2023-04-02T03:08:02.008Z,101341.19
2023-04-02T03:10:43.494Z,101345.69
2023-04-02T03:13:23.802Z,101348.41
2023-04-02T03:16:12.939Z,101367.88
2023-04-02T03:18:58.582Z,101370.59
2023-04-02T03:21:31.419Z,101371.53
2023-04-02T03:24:18.976Z,101374.19
2023-04-02T03:27:25.630Z,101372.44
2023-04-02T03:30:06.735Z,101372.53
2023-04-02T03:32:43.802Z,101387.63
2023-04-02T03:35:26.559Z,101388.53
2023-04-02T03:38:05.548Z,101395.69
2023-04-02T03:40:48.329Z,101398.38
2023-04-02T03:43:25.577Z,101399.28
2023-04-02T03:46:34.268Z,101401.13
2023-04-02T03:49:24.409Z,101398.44
2023-04-02T03:52:20.232Z,101405.59
2023-04-02T03:54:56.347Z,101410.06
2023-04-02T03:57:36.984Z,101416.28
2023-04-02T04:00:16.900Z,101413.66
2023-04-02T04:02:59.240Z,101417.19
2023-04-02T04:05:43.960Z,101420.78
2023-04-02T04:08:26.963Z,101426.16
2023-04-02T04:11:03.850Z,101419.06
2023-04-02T04:13:47.128Z,101433.25
2023-04-02T04:16:26.721Z,101427.13
2023-04-02T04:19:21.997Z,101436.88
2023-04-02T04:22:09.870Z,101436.03
2023-04-02T04:24:45.670Z,101436.94
2023-04-02T04:27:33.809Z,101444.13
2023-04-02T04:30:15.015Z,101452.13
2023-04-02T04:32:58.139Z,101451.22
2023-04-02T04:35:37.232Z,101458.34
2023-04-02T04:38:17.537Z,101459.25
2023-04-02T04:41:05.099Z,101456.59
2023-04-02T04:44:01.079Z,101460.19
2023-04-02T04:46:42.553Z,101468.22
2023-04-02T04:49:21.005Z,101474.50
2023-04-02T04:52:22.521Z,101468.25
2023-04-02T04:54:56.571Z,101482.50
2023-04-02T04:57:35.395Z,101487.81
2023-04-02T05:00:45.005Z,101488.75
2023-04-02T05:03:33.554Z,101499.41
2023-04-02T05:06:19.794Z,101495.88
2023-04-02T05:08:56.512Z,101505.69
2023-04-02T05:11:45.839Z,101508.38
2023-04-02T05:14:34.072Z,101519.03
2023-04-02T05:17:26.338Z,101523.53
2023-04-02T05:20:38.502Z,101535.09
2023-04-02T05:23:21.226Z,101540.44
2023-04-02T05:26:12.168Z,101541.38
2023-04-02T05:28:51.875Z,101546.69
2023-04-02T05:31:44.200Z,101554.72
2023-04-02T05:34:25.992Z,101557.44
2023-04-02T05:37:00.460Z,101568.97
2023-04-02T05:39:33.021Z,101576.97
2023-04-02T05:42:15.408Z,101577.00
2023-04-02T05:45:16.584Z,101594.78
2023-04-02T05:47:52.317Z,101595.69
2023-04-02T05:50:37.635Z,101598.34
2023-04-02T05:53:30.691Z,101609.88
2023-04-02T05:56:15.557Z,101615.19
2023-04-02T05:58:56.028Z,101611.59
2023-04-02T06:02:03.586Z,101623.03
2023-04-02T06:04:50.326Z,101627.44
2023-04-02T06:07:28.511Z,101632.69
2023-04-02T06:10:10.300Z,101629.03
2023-04-02T06:12:52.428Z,101629.88
2023-04-02T06:15:26.010Z,101631.53
2023-04-02T06:18:35.260Z,101643.88
2023-04-02T06:21:12.728Z,101646.44
2023-04-02T06:23:52.407Z,101640.19
2023-04-02T06:26:33.884Z,101654.28
2023-04-02T06:29:20.214Z,101655.13
2023-04-02T06:32:01.469Z,101662.97
2023-04-02T06:34:38.228Z,101663.78
2023-04-02T06:37:35.846Z,101672.53
2023-04-02T06:40:47.429Z,101686.66
2023-04-02T06:43:45.939Z,101690.13
2023-04-02T06:46:45.425Z,101706.00
2023-04-02T06:49:25.970Z,101692.63
2023-04-02T06:52:05.891Z,101696.97
2023-04-02T06:54:38.373Z,101695.13
2023-04-02T06:57:14.737Z,101700.41
2023-04-02T06:59:51.020Z,101703.00
2023-04-02T07:02:37.088Z,101709.16
2023-04-02T07:05:13.172Z,101709.09
2023-04-02T07:07:50.970Z,101722.38
2023-04-02T07:10:24.202Z,101730.34
2023-04-02T07:12:56.909Z,101725.88
2023-04-02T07:15:30.933Z,101737.41
2023-04-02T07:18:04.671Z,101743.56
2023-04-02T07:20:37.924Z,101746.16
2023-04-02T07:23:16.518Z,101748.78
2023-04-02T07:25:57.121Z,101758.53
2023-04-02T07:28:30.216Z,101765.59
2023-04-02T07:31:02.908Z,101769.09
2023-04-02T07:33:35.478Z,101765.50
2023-04-02T07:36:08.181Z,101769.00
2023-04-02T07:38:41.084Z,101761.91
2023-04-02T07:41:19.954Z,101769.00
2023-04-02T07:43:53.612Z,101769.00
2023-04-02T07:46:27.358Z,101771.69
2023-04-02T07:48:59.779Z,101773.44
2023-04-02T07:51:32.939Z,101785.88
2023-04-02T07:54:05.511Z,101787.66
2023-04-02T07:56:38.637Z,101787.66
2023-04-02T07:59:11.417Z,101784.09
2023-04-02T08:01:44.140Z,101792.13
2023-04-02T08:04:19.817Z,101798.28
2023-04-02T08:06:53.134Z,101799.19
2023-04-02T08:09:25.684Z,101815.22
2023-04-02T08:11:58.270Z,101815.25
2023-04-02T08:14:30.703Z,101823.22
2023-04-02T08:17:03.078Z,101825.88
2023-04-02T08:19:47.795Z,101826.81
2023-04-02T08:22:27.732Z,101841.03
2023-04-02T08:25:01.611Z,101834.81
2023-04-02T08:27:35.413Z,101840.16
2023-04-02T08:30:10.221Z,101849.94
2023-04-02T08:32:43.190Z,101845.53
2023-04-02T08:35:17.202Z,101856.22
2023-04-02T08:37:49.709Z,101859.75
2023-04-02T08:40:36.538Z,101862.41
2023-04-02T08:43:15.785Z,101857.97
2023-04-02T08:46:17.657Z,101861.59
2023-04-02T08:48:58.409Z,101871.41
2023-04-02T08:51:34.779Z,101865.16
2023-04-02T08:54:38.071Z,101858.06
2023-04-02T08:57:13.582Z,101879.41
2023-04-02T08:59:47.212Z,101884.75
2023-04-02T09:02:40.808Z,101888.34
2023-04-02T09:05:34.710Z,101891.03
2023-04-02T09:08:22.622Z,101898.16
2023-04-02T09:11:19.215Z,101907.91
2023-04-02T09:13:57.394Z,101902.66
2023-04-02T09:16:49.729Z,101906.19
2023-04-02T09:19:31.575Z,101907.94
2023-04-02T09:22:07.809Z,101913.28
2023-04-02T09:24:42.553Z,101908.00
2023-04-02T09:27:24.974Z,101914.22
2023-04-02T09:30:18.957Z,101913.31
2023-04-02T09:32:54.281Z,101924.94
2023-04-02T09:35:29.327Z,101916.03
2023-04-02T09:38:07.786Z,101921.38
2023-04-02T09:41:05.760Z,101926.72
2023-04-02T09:43:39.213Z,101929.41
2023-04-02T09:46:15.591Z,101935.66
2023-04-02T09:48:58.523Z,101927.69
2023-04-02T09:51:34.773Z,101930.38
2023-04-02T09:54:14.314Z,101945.50
2023-04-02T09:57:03.430Z,101937.50
2023-04-02T09:59:36.163Z,101943.75
2023-04-02T10:02:28.826Z,101953.50
2023-04-02T10:05:04.841Z,101957.09
2023-04-02T10:07:43.836Z,101960.66
2023-04-02T10:10:41.916Z,101974.00
2023-04-02T10:13:21.038Z,101979.31
2023-04-02T10:15:59.470Z,101985.56
2023-04-02T10:18:44.165Z,101990.00
2023-04-02T10:21:25.294Z,101983.78
2023-04-02T10:23:59.676Z,101988.25
2023-04-02T10:26:32.016Z,101991.78
2023-04-02T10:29:18.378Z,102004.22
2023-04-02T10:32:03.066Z,102001.56
2023-04-02T10:34:58.702Z,102006.00
2023-04-02T10:37:47.293Z,101998.94
2023-04-02T10:40:35.691Z,102009.56
2023-04-02T10:43:27.495Z,102008.69
2023-04-02T10:49:42.719Z,102026.47
2023-04-02T10:52:26.852Z,102028.28
2023-04-02T10:55:16.792Z,102029.16
2023-04-02T10:57:52.124Z,102022.00
2023-04-02T11:00:28.228Z,102014.94
2023-04-02T11:03:09.465Z,102013.13
2023-04-02T11:05:53.596Z,102013.16
2023-04-02T11:08:41.697Z,102017.59
2023-04-02T11:11:49.181Z,102020.25
2023-04-02T11:14:28.933Z,102021.13
2023-04-02T11:17:04.807Z,102020.28
2023-04-02T11:19:37.838Z,102025.59
2023-04-02T11:22:23.397Z,102030.03
2023-04-02T11:24:57.533Z,102036.25
2023-04-02T11:27:32.828Z,102030.03
2023-04-02T11:30:24.651Z,102030.03
2023-04-02T11:33:35.872Z,102039.78
2023-04-02T11:36:46.635Z,102038.94
2023-04-02T11:39:55.210Z,102050.47
2023-04-02T11:42:33.548Z,102043.34
2023-04-02T11:45:23.806Z,102050.47
2023-04-02T11:48:02.556Z,102052.25
2023-04-02T11:50:43.157Z,102053.13
2023-04-02T11:53:21.694Z,102055.81
2023-04-02T11:55:56.729Z,102058.47
2023-04-02T11:59:02.419Z,102064.66
2023-04-02T12:01:59.165Z,102067.31
2023-04-02T12:04:56.668Z,102069.09
2023-04-02T12:07:46.886Z,102065.47
2023-04-02T12:10:28.416Z,102068.09
2023-04-02T12:13:00.911Z,102072.56
2023-04-02T12:15:46.522Z,102081.41
2023-04-02T12:18:24.356Z,102075.19
2023-04-02T12:20:57.578Z,102091.16
2023-04-02T12:23:33.424Z,102091.16
2023-04-02T12:26:23.086Z,102086.66
2023-04-02T12:28:56.429Z,102091.13
2023-04-02T12:31:29.875Z,102086.66
2023-04-02T12:34:02.498Z,102087.56
2023-04-02T12:36:36.214Z,102095.56
2023-04-02T12:39:17.420Z,102093.81
2023-04-02T12:41:50.031Z,102095.53
2023-04-02T12:44:28.605Z,102100.84
2023-04-02T12:47:01.228Z,102101.72
2023-04-02T12:49:39.608Z,102092.78
2023-04-02T12:52:17.577Z,102087.44
2023-04-02T12:54:53.245Z,102090.94
2023-04-02T12:57:25.962Z,102092.72
2023-04-02T13:00:22.512Z,102109.53
2023-04-02T13:03:18.274Z,102111.31
2023-04-02T13:05:53.358Z,102106.84
2023-04-02T13:08:29.568Z,102102.41
2023-04-02T13:11:03.991Z,102112.13
2023-04-02T13:13:39.795Z,102111.22
2023-04-02T13:16:15.173Z,102110.28
2023-04-02T13:18:49.578Z,102110.25
2023-04-02T13:21:29.943Z,102109.34
2023-04-02T13:24:02.333Z,102112.84
2023-04-02T13:26:34.769Z,102111.03
2023-04-02T13:29:26.817Z,102109.16
2023-04-02T13:32:08.063Z,102102.84
2023-04-02T13:34:40.860Z,102110.84
2023-04-02T13:37:13.396Z,102112.59
2023-04-02T13:39:45.750Z,102108.13
2023-04-02T13:42:19.436Z,102111.59
2023-04-02T13:44:51.793Z,102116.88
2023-04-02T13:47:24.834Z,102110.63
2023-04-02T13:49:57.238Z,102107.84
2023-04-02T13:52:29.861Z,102114.00
2023-04-02T13:55:03.369Z,102119.19
2023-04-02T13:57:35.803Z,102112.03
2023-04-02T14:00:08.915Z,102113.75
2023-04-02T14:02:47.596Z,102109.13
2023-04-02T14:05:57.219Z,102111.44
2023-04-02T14:08:56.042Z,102118.88
2023-04-02T14:11:52.522Z,102128.09
2023-04-02T14:14:50.019Z,102125.50
2023-04-02T14:17:38.408Z,102123.00
2023-04-02T14:20:20.810Z,102132.13
2023-04-02T14:23:05.738Z,102129.53
2023-04-02T14:26:15.425Z,102121.34
2023-04-02T14:28:50.771Z,102119.66
2023-04-02T14:31:43.211Z,102113.97
2023-04-02T14:34:43.192Z,102119.59
2023-04-02T14:37:45.750Z,102120.78
2023-04-02T14:40:37.230Z,102121.63
2023-04-02T14:43:15.998Z,102125.16
2023-04-02T14:45:51.759Z,102123.34
2023-04-02T14:48:33.044Z,102112.84
2023-04-02T14:51:14.836Z,102115.13
2023-04-02T14:54:11.707Z,102125.78
2023-04-02T14:56:57.245Z,102113.81
2023-04-02T14:59:30.010Z,102115.28
2023-04-02T15:02:41.553Z,102129.34
2023-04-02T15:05:32.570Z,102123.00
2023-04-02T15:08:24.702Z,102120.16
2023-04-02T15:11:10.518Z,102114.63
2023-04-02T15:13:50.022Z,102116.72
2023-04-02T15:16:26.770Z,102114.91
2023-04-02T15:19:01.294Z,102113.03
2023-04-02T15:22:09.525Z,102120.25
2023-04-02T15:25:16.751Z,102120.69
2023-04-02T15:28:30.271Z,102126.53
2023-04-02T15:31:10.120Z,102126.00
2023-04-02T15:33:44.072Z,102122.09
2023-04-02T15:36:35.527Z,102109.47
2023-04-02T15:39:28.497Z,102119.97
2023-04-02T15:42:25.674Z,102118.50
2023-04-02T15:45:10.938Z,102111.84
2023-04-02T15:47:52.578Z,102117.81
2023-04-02T15:50:50.455Z,102117.88
2023-04-02T15:53:43.593Z,102123.16
2023-04-02T15:56:48.988Z,102128.06
2023-04-02T15:59:59.562Z,102117.19
2023-04-02T16:02:34.785Z,102125.72
2023-04-02T16:05:27.353Z,102126.22
2023-04-02T16:08:31.782Z,102129.84
2023-04-02T16:11:13.304Z,102136.44
2023-04-02T16:13:47.391Z,102130.00
2023-04-02T16:16:26.909Z,102128.81
2023-04-02T16:19:05.557Z,102131.22
2023-04-02T16:21:58.933Z,102122.97
2023-04-02T16:24:31.381Z,102121.06
2023-04-02T16:27:15.044Z,102126.44
2023-04-02T16:30:07.892Z,102125.81
2023-04-02T16:32:55.687Z,102122.56
2023-04-02T16:36:16.660Z,102110.34
2023-04-02T16:39:32.633Z,102104.56
2023-04-02T16:42:05.544Z,102119.31
2023-04-02T16:45:04.482Z,102134.81
2023-04-02T16:47:59.960Z,102140.63
2023-04-02T16:50:57.126Z,102148.13
2023-04-02T16:54:00.627Z,102151.13
2023-04-02T16:56:52.710Z,102162.22
2023-04-02T16:59:53.411Z,102162.53
2023-04-02T17:02:35.132Z,102156.63
2023-04-02T17:05:11.010Z,102160.41
2023-04-02T17:08:15.513Z,102172.28
2023-04-02T17:11:01.974Z,102172.56
2023-04-02T17:14:06.176Z,102175.41
2023-04-02T17:16:46.749Z,102180.16
2023-04-02T17:19:20.914Z,102180.34
2023-04-02T17:21:58.809Z,102188.59
2023-04-02T17:24:39.022Z,102187.88
2023-04-02T17:27:30.218Z,102193.44
2023-04-02T17:30:13.816Z,102187.34
2023-04-02T17:32:46.412Z,102192.03
2023-04-02T17:35:32.298Z,102202.13
2023-04-02T17:38:20.981Z,102198.84
2023-04-02T17:41:22.634Z,102209.78
2023-04-02T17:44:36.815Z,102225.28
2023-04-02T17:47:23.803Z,102218.31
2023-04-02T17:50:19.646Z,102215.91
2023-04-02T17:53:34.109Z,102217.84
2023-04-02T17:56:09.516Z,102222.53
2023-04-02T17:59:00.507Z,102224.56
2023-04-02T18:01:36.784Z,102230.09
2023-04-02T18:04:39.396Z,102237.28
2023-04-02T18:07:34.945Z,102230.38
2023-04-02T18:10:41.276Z,102233.13
2023-04-02T18:13:46.356Z,102240.41
2023-04-02T18:16:32.444Z,102239.63
2023-04-02T18:19:17.242Z,102249.53
2023-04-02T18:22:07.966Z,102248.75
2023-04-02T18:25:02.375Z,102254.19
2023-04-02T18:28:07.250Z,102260.53
2023-04-02T18:30:43.898Z,102258.81
2023-04-02T18:33:30.528Z,102266.88
2023-04-02T18:36:23.672Z,102274.06
2023-04-02T18:39:20.934Z,102273.22
2023-04-02T18:42:02.555Z,102277.81
2023-04-02T18:44:38.899Z,102285.84
2023-04-02T18:47:22.318Z,102289.44
2023-04-02T18:50:18.690Z,102293.94
2023-04-02T18:52:51.157Z,102302.91
2023-04-02T18:55:30.775Z,102301.22
2023-04-02T18:58:15.031Z,102308.38
2023-04-02T19:00:50.020Z,102314.66
2023-04-02T19:03:36.757Z,102320.94
2023-04-02T19:06:19.345Z,102314.72
2023-04-02T19:08:58.856Z,102326.44
2023-04-02T19:11:32.143Z,102329.97
2023-04-02T19:14:13.053Z,102333.63
2023-04-02T19:16:51.328Z,102335.41
2023-04-02T19:19:27.213Z,102337.25
2023-04-02T19:22:24.274Z,102339.09
2023-04-02T19:25:36.721Z,102335.50
2023-04-02T19:28:13.617Z,102344.50
2023-04-02T19:31:05.733Z,102357.00
2023-04-02T19:34:02.457Z,102358.81
2023-04-02T19:37:09.781Z,102364.16
2023-04-02T19:40:05.104Z,102371.34
2023-04-02T19:42:46.815Z,102380.28
2023-04-02T19:45:26.687Z,102381.19
2023-04-02T19:48:03.733Z,102383.00
2023-04-02T19:50:36.698Z,102385.72
2023-04-02T19:53:09.495Z,102383.94
2023-04-02T19:55:42.860Z,102390.16
2023-04-02T19:58:36.142Z,102389.28
2023-04-02T20:01:09.465Z,102388.41
2023-04-02T20:03:42.448Z,102393.78
2023-04-02T20:06:15.657Z,102396.47
2023-04-02T20:08:48.076Z,102404.50
2023-04-02T20:11:21.022Z,102405.41
2023-04-02T20:13:54.536Z,102404.53
2023-04-02T20:16:28.017Z,102408.97
2023-04-02T20:19:00.839Z,102404.53
2023-04-02T20:21:38.457Z,102402.75
2023-04-02T20:24:11.462Z,102411.66
2023-04-02T20:26:44.468Z,102412.56
2023-04-02T20:29:17.025Z,102417.91
2023-04-02T20:31:53.081Z,102417.00
2023-04-02T20:34:26.105Z,102419.69
2023-04-02T20:36:58.653Z,102416.09
2023-04-02T20:39:31.108Z,102430.38
2023-04-02T20:42:03.728Z,102430.38
2023-04-02T20:44:36.387Z,102430.38
2023-04-02T20:47:10.665Z,102437.50
2023-04-02T20:49:43.346Z,102437.50
2023-04-02T20:52:15.741Z,102441.94
2023-04-02T20:54:48.089Z,102438.38
2023-04-02T20:57:21.971Z,102447.28
2023-04-02T20:59:54.663Z,102451.75
2023-04-02T21:02:27.092Z,102449.06
2023-04-02T21:04:59.370Z,102450.03
2023-04-02T21:07:31.712Z,102460.66
2023-04-02T21:10:05.272Z,102455.34
2023-04-02T21:12:38.854Z,102453.53
2023-04-02T21:15:13.701Z,102453.53
2023-04-02T21:17:47.608Z,102458.88
2023-04-02T21:20:21.221Z,102464.25
2023-04-02T21:22:53.960Z,102464.25
2023-04-02T21:25:26.415Z,102464.25
2023-04-02T21:27:58.799Z,102466.97
2023-04-02T21:30:33.160Z,102471.41
2023-04-02T21:33:06.403Z,102471.41
2023-04-02T21:35:39.148Z,102476.81
2023-04-02T21:38:11.565Z,102478.59
2023-04-02T21:40:44.089Z,102482.19
2023-04-02T21:43:17.944Z,102469.69
2023-04-02T21:45:50.382Z,102480.41
2023-04-02T21:48:23.067Z,102481.34
2023-04-02T21:50:56.008Z,102486.69
2023-04-02T21:53:28.666Z,102484.91
2023-04-02T21:56:06.539Z,102489.34
2023-04-02T21:58:39.059Z,102484.94
2023-04-02T22:01:23.927Z,102484.06
2023-04-02T22:04:02.010Z,102476.97
2023-04-02T22:06:40.409Z,102482.34
2023-04-02T22:09:16.480Z,102478.78
2023-04-02T22:11:54.165Z,102480.59
2023-04-02T22:14:28.614Z,102480.63
2023-04-02T22:17:01.333Z,102479.72
2023-04-02T22:19:33.957Z,102486.00
2023-04-02T22:22:06.519Z,102482.50
2023-04-02T22:24:39.503Z,102481.59
2023-04-02T22:27:12.625Z,102480.72
2023-04-02T22:29:46.805Z,102481.63
2023-04-02T22:32:19.094Z,102479.88
2023-04-02T22:34:51.622Z,102480.78
2023-04-02T22:37:25.211Z,102490.59
2023-04-02T22:39:57.675Z,102484.41
2023-04-02T22:42:30.463Z,102500.47
2023-04-02T22:45:05.265Z,102498.69
2023-04-02T22:47:37.744Z,102482.66
2023-04-02T22:50:10.474Z,102490.66
2023-04-02T22:52:44.286Z,102491.59
2023-04-02T22:55:17.076Z,102480.97
2023-04-02T22:57:49.543Z,102473.88
2023-04-02T23:00:23.312Z,102479.22
2023-04-02T23:02:56.877Z,102478.38
2023-04-02T23:05:29.306Z,102481.03
2023-04-02T23:08:02.035Z,102479.25
2023-04-02T23:10:34.547Z,102475.75
2023-04-02T23:13:07.691Z,102470.41
2023-04-02T23:15:39.996Z,102470.44
2023-04-02T23:18:12.538Z,102472.22
2023-04-02T23:20:45.045Z,102472.28
2023-04-02T23:23:17.973Z,102470.50
2023-04-02T23:25:50.352Z,102467.84
2023-04-02T23:28:23.416Z,102461.63
2023-04-02T23:30:57.468Z,102465.22
2023-04-02T23:33:30.253Z,102460.78
2023-04-02T23:36:28.739Z,102466.16
2023-04-02T23:39:04.840Z,102470.59
2023-04-02T23:41:40.136Z,102468.88
2023-04-02T23:44:13.140Z,102467.09
2023-04-02T23:46:47.295Z,102459.97
2023-04-02T23:49:21.562Z,102468.97
2023-04-02T23:51:58.486Z,102459.19
2023-04-02T23:54:31.328Z,102459.22
2023-04-02T23:57:05.387Z,102457.47
2023-04-02T23:59:39.293Z,102468.16
